<?xml version="1.0" encoding="UTF-8" standalone="no" ?><gpx xmlns="http://www.topografix.com/GPX/1/1" xmlns:gpxx="http://www.garmin.com/xmlschemas/GpxExtensions/v3" xmlns:gpxtrkx="http://www.garmin.com/xmlschemas/TrackStatsExtension/v1" xmlns:wptx1="http://www.garmin.com/xmlschemas/WaypointExtension/v1" xmlns:gpxtpx="http://www.garmin.com/xmlschemas/TrackPointExtension/v1" creator="GPSMAP 64st" version="1.1" xmlns:xsi="http://www.w3.org/2001/XMLSchema-instance" xsi:schemaLocation="http://www.topografix.com/GPX/1/1 http://www.topografix.com/GPX/1/1/gpx.xsd http://www.garmin.com/xmlschemas/GpxExtensions/v3 http://www8.garmin.com/xmlschemas/GpxExtensionsv3.xsd http://www.garmin.com/xmlschemas/TrackStatsExtension/v1 http://www8.garmin.com/xmlschemas/TrackStatsExtension.xsd http://www.garmin.com/xmlschemas/WaypointExtension/v1 http://www8.garmin.com/xmlschemas/WaypointExtensionv1.xsd http://www.garmin.com/xmlschemas/TrackPointExtension/v1 http://www.garmin.com/xmlschemas/TrackPointExtensionv1.xsd"><metadata><link href="http://www.garmin.com"><text>Garmin International</text></link><time>2026-08-16T10:29:20Z</time></metadata><trk><name>2026-08-16 13:29:17</name><extensions><gpxx:TrackExtension><gpxx:DisplayColor>Red</gpxx:DisplayColor></gpxx:TrackExtension></extensions><trkseg><trkpt lat="59.3049636483" lon="34.7126516886"><ele>168.48</ele><time>2026-08-16T08:43:06Z</time></trkpt><trkpt lat="59.3047348224" lon="34.7127576359"><ele>168.82</ele><time>2026-08-16T08:43:08Z</time></trkpt><trkpt lat="59.3044104427" lon="34.7129521798"><ele>168.36</ele><time>2026-08-16T08:43:11Z</time></trkpt><trkpt lat="59.3035605177" lon="34.7140203696"><ele>165.19</ele><time>2026-08-16T08:43:20Z</time></trkpt><trkpt lat="59.3034211267" lon="34.7143660393"><ele>164.52</ele><time>2026-08-16T08:43:22Z</time></trkpt><trkpt lat="59.3028287776" lon="34.7161319386"><ele>161.15</ele><time>2026-08-16T08:43:31Z</time></trkpt><trkpt lat="59.3024297990" lon="34.7174608894"><ele>158.05</ele><time>2026-08-16T08:43:38Z</time></trkpt><trkpt lat="59.3016355298" lon="34.7198780626"><ele>155.05</ele><time>2026-08-16T08:43:51Z</time></trkpt><trkpt lat="59.3005574495" lon="34.7220485564"><ele>154.58</ele><time>2026-08-16T08:44:05Z</time></trkpt><trkpt lat="59.2993654590" lon="34.7243493050"><ele>154.18</ele><time>2026-08-16T08:44:19Z</time></trkpt><trkpt lat="59.2985406797" lon="34.7259815130"><ele>151.02</ele><time>2026-08-16T08:44:28Z</time></trkpt><trkpt lat="59.2976303212" lon="34.7275231127"><ele>147.85</ele><time>2026-08-16T08:44:37Z</time></trkpt><trkpt lat="59.2964654043" lon="34.7291490342"><ele>147.72</ele><time>2026-08-16T08:44:48Z</time></trkpt><trkpt lat="59.2949884292" lon="34.7310592700"><ele>147.97</ele><time>2026-08-16T08:45:02Z</time></trkpt><trkpt lat="59.2935786769" lon="34.7326317150"><ele>148.14</ele><time>2026-08-16T08:45:15Z</time></trkpt><trkpt lat="59.2923384905" lon="34.7334631160"><ele>148.01</ele><time>2026-08-16T08:45:25Z</time></trkpt><trkpt lat="59.2904411629" lon="34.7345986124"><ele>146.79</ele><time>2026-08-16T08:45:39Z</time></trkpt><trkpt lat="59.2891496792" lon="34.7353520617"><ele>143.64</ele><time>2026-08-16T08:45:49Z</time></trkpt><trkpt lat="59.2873570416" lon="34.7358698118"><ele>142.53</ele><time>2026-08-16T08:46:02Z</time></trkpt><trkpt lat="59.2864171788" lon="34.7360996436"><ele>141.46</ele><time>2026-08-16T08:46:09Z</time></trkpt><trkpt lat="59.2845834699" lon="34.7365990374"><ele>141.00</ele><time>2026-08-16T08:46:24Z</time></trkpt><trkpt lat="59.2830466479" lon="34.7369319666"><ele>142.54</ele><time>2026-08-16T08:46:35Z</time></trkpt><trkpt lat="59.2816596106" lon="34.7369166277"><ele>139.77</ele><time>2026-08-16T08:46:46Z</time></trkpt><trkpt lat="59.2812637333" lon="34.7367885523"><ele>136.42</ele><time>2026-08-16T08:46:50Z</time></trkpt><trkpt lat="59.2811973486" lon="34.7367419489"><ele>135.53</ele><time>2026-08-16T08:46:51Z</time></trkpt><trkpt lat="59.2811533436" lon="34.7366936691"><ele>134.70</ele><time>2026-08-16T08:46:52Z</time></trkpt><trkpt lat="59.2811312154" lon="34.7366232611"><ele>134.46</ele><time>2026-08-16T08:46:53Z</time></trkpt><trkpt lat="59.2811123561" lon="34.7365417890"><ele>134.07</ele><time>2026-08-16T08:46:54Z</time></trkpt><trkpt lat="59.2810998671" lon="34.7364430502"><ele>134.10</ele><time>2026-08-16T08:46:55Z</time></trkpt><trkpt lat="59.2811066564" lon="34.7363339178"><ele>134.26</ele><time>2026-08-16T08:46:56Z</time></trkpt><trkpt lat="59.2811229173" lon="34.7362169065"><ele>134.41</ele><time>2026-08-16T08:46:57Z</time></trkpt><trkpt lat="59.2811369151" lon="34.7361066006"><ele>134.41</ele><time>2026-08-16T08:46:58Z</time></trkpt><trkpt lat="59.2812831793" lon="34.7353797220"><ele>134.68</ele><time>2026-08-16T08:47:08Z</time></trkpt><trkpt lat="59.2816159409" lon="34.7347716149"><ele>134.73</ele><time>2026-08-16T08:47:22Z</time></trkpt><trkpt lat="59.2818608601" lon="34.7344692796"><ele>134.96</ele><time>2026-08-16T08:47:33Z</time></trkpt><trkpt lat="59.2820388079" lon="34.7341402061"><ele>135.75</ele><time>2026-08-16T08:47:39Z</time></trkpt><trkpt lat="59.2820651270" lon="34.7340692952"><ele>135.81</ele><time>2026-08-16T08:47:40Z</time></trkpt><trkpt lat="59.2820882611" lon="34.7340018209"><ele>135.65</ele><time>2026-08-16T08:47:41Z</time></trkpt><trkpt lat="59.2821068689" lon="34.7339314129"><ele>135.66</ele><time>2026-08-16T08:47:42Z</time></trkpt><trkpt lat="59.2821230460" lon="34.7338584904"><ele>135.54</ele><time>2026-08-16T08:47:43Z</time></trkpt><trkpt lat="59.2821471859" lon="34.7337657865"><ele>135.45</ele><time>2026-08-16T08:47:48Z</time></trkpt><trkpt lat="59.2821124848" lon="34.7338805348"><ele>135.59</ele><time>2026-08-16T08:47:57Z</time></trkpt><trkpt lat="59.2821015883" lon="34.7338782717"><ele>135.91</ele><time>2026-08-16T08:48:32Z</time></trkpt><trkpt lat="59.2821082100" lon="34.7338814568"><ele>136.11</ele><time>2026-08-16T08:49:07Z</time></trkpt><trkpt lat="59.2821097188" lon="34.7338294890"><ele>136.47</ele><time>2026-08-16T08:50:00Z</time></trkpt><trkpt lat="59.2821255606" lon="34.7337408923"><ele>136.47</ele><time>2026-08-16T08:50:03Z</time></trkpt><trkpt lat="59.2821610998" lon="34.7331652232"><ele>136.57</ele><time>2026-08-16T08:50:18Z</time></trkpt><trkpt lat="59.2821442522" lon="34.7324424516"><ele>137.05</ele><time>2026-08-16T08:50:33Z</time></trkpt><trkpt lat="59.2821112275" lon="34.7318687942"><ele>136.68</ele><time>2026-08-16T08:50:48Z</time></trkpt><trkpt lat="59.2821155861" lon="34.7317769285"><ele>137.00</ele><time>2026-08-16T08:51:05Z</time></trkpt><trkpt lat="59.2821144965" lon="34.7318007331"><ele>137.00</ele><time>2026-08-16T08:51:35Z</time></trkpt><trkpt lat="59.2821213696" lon="34.7317894176"><ele>137.29</ele><time>2026-08-16T08:52:47Z</time></trkpt><trkpt lat="59.2821086291" lon="34.7317421436"><ele>137.69</ele><time>2026-08-16T08:53:15Z</time></trkpt><trkpt lat="59.2820988223" lon="34.7316985577"><ele>137.63</ele><time>2026-08-16T08:53:17Z</time></trkpt><trkpt lat="59.2820726708" lon="34.7315439116"><ele>138.17</ele><time>2026-08-16T08:53:22Z</time></trkpt><trkpt lat="59.2820462678" lon="34.7314260621"><ele>138.34</ele><time>2026-08-16T08:53:25Z</time></trkpt><trkpt lat="59.2819858342" lon="34.7307882831"><ele>138.05</ele><time>2026-08-16T08:53:39Z</time></trkpt><trkpt lat="59.2819787934" lon="34.7297620028"><ele>139.55</ele><time>2026-08-16T08:53:50Z</time></trkpt><trkpt lat="59.2820786219" lon="34.7287073079"><ele>139.53</ele><time>2026-08-16T08:54:02Z</time></trkpt><trkpt lat="59.2821354512" lon="34.7282630671"><ele>139.08</ele><time>2026-08-16T08:54:12Z</time></trkpt><trkpt lat="59.2821427435" lon="34.7282456327"><ele>139.06</ele><time>2026-08-16T08:54:13Z</time></trkpt><trkpt lat="59.2821709067" lon="34.7281104326"><ele>139.34</ele><time>2026-08-16T08:54:16Z</time></trkpt><trkpt lat="59.2823709827" lon="34.7270649578"><ele>141.47</ele><time>2026-08-16T08:54:26Z</time></trkpt><trkpt lat="59.2827160656" lon="34.7251905967"><ele>141.74</ele><time>2026-08-16T08:54:41Z</time></trkpt><trkpt lat="59.2830662616" lon="34.7233058419"><ele>141.71</ele><time>2026-08-16T08:54:55Z</time></trkpt><trkpt lat="59.2834851891" lon="34.7211020719"><ele>140.25</ele><time>2026-08-16T08:55:12Z</time></trkpt><trkpt lat="59.2836844269" lon="34.7199125122"><ele>141.64</ele><time>2026-08-16T08:55:23Z</time></trkpt><trkpt lat="59.2839913722" lon="34.7180567589"><ele>141.24</ele><time>2026-08-16T08:55:36Z</time></trkpt><trkpt lat="59.2844062764" lon="34.7161316033"><ele>140.60</ele><time>2026-08-16T08:55:51Z</time></trkpt><trkpt lat="59.2847394571" lon="34.7147156484"><ele>140.21</ele><time>2026-08-16T08:56:03Z</time></trkpt><trkpt lat="59.2851474043" lon="34.7131256852"><ele>139.74</ele><time>2026-08-16T08:56:16Z</time></trkpt><trkpt lat="59.2858112510" lon="34.7119017597"><ele>138.38</ele><time>2026-08-16T08:56:30Z</time></trkpt><trkpt lat="59.2859005183" lon="34.7117899451"><ele>137.32</ele><time>2026-08-16T08:56:37Z</time></trkpt><trkpt lat="59.2858980875" lon="34.7118036076"><ele>137.33</ele><time>2026-08-16T08:57:08Z</time></trkpt><trkpt lat="59.2859057989" lon="34.7118067089"><ele>137.68</ele><time>2026-08-16T08:57:48Z</time></trkpt><trkpt lat="59.2859375663" lon="34.7117575910"><ele>137.90</ele><time>2026-08-16T08:58:14Z</time></trkpt><trkpt lat="59.2859699205" lon="34.7117025219"><ele>138.06</ele><time>2026-08-16T08:58:16Z</time></trkpt><trkpt lat="59.2859934736" lon="34.7116680723"><ele>138.13</ele><time>2026-08-16T08:58:17Z</time></trkpt><trkpt lat="59.2864507902" lon="34.7112475522"><ele>137.59</ele><time>2026-08-16T08:58:31Z</time></trkpt><trkpt lat="59.2869932670" lon="34.7109345719"><ele>137.05</ele><time>2026-08-16T08:58:45Z</time></trkpt><trkpt lat="59.2875180580" lon="34.7107851226"><ele>137.12</ele><time>2026-08-16T08:59:00Z</time></trkpt><trkpt lat="59.2879180424" lon="34.7107233480"><ele>138.58</ele><time>2026-08-16T08:59:15Z</time></trkpt><trkpt lat="59.2882726807" lon="34.7104412131"><ele>140.58</ele><time>2026-08-16T08:59:30Z</time></trkpt><trkpt lat="59.2884891853" lon="34.7100572381"><ele>142.15</ele><time>2026-08-16T08:59:41Z</time></trkpt><trkpt lat="59.2886072863" lon="34.7098264843"><ele>142.00</ele><time>2026-08-16T08:59:55Z</time></trkpt><trkpt lat="59.2885562405" lon="34.7098431643"><ele>141.94</ele><time>2026-08-16T09:00:13Z</time></trkpt><trkpt lat="59.2885155883" lon="34.7098027635"><ele>142.10</ele><time>2026-08-16T09:00:42Z</time></trkpt><trkpt lat="59.2885204498" lon="34.7098756861"><ele>142.30</ele><time>2026-08-16T09:01:11Z</time></trkpt><trkpt lat="59.2885038536" lon="34.7099570744"><ele>142.20</ele><time>2026-08-16T09:01:19Z</time></trkpt><trkpt lat="59.2884927895" lon="34.7099823877"><ele>142.24</ele><time>2026-08-16T09:01:20Z</time></trkpt><trkpt lat="59.2884813063" lon="34.7100071982"><ele>142.14</ele><time>2026-08-16T09:01:21Z</time></trkpt><trkpt lat="59.2882316094" lon="34.7104760818"><ele>141.00</ele><time>2026-08-16T09:01:36Z</time></trkpt><trkpt lat="59.2877207324" lon="34.7107487451"><ele>139.01</ele><time>2026-08-16T09:01:49Z</time></trkpt><trkpt lat="59.2869490106" lon="34.7109613102"><ele>137.80</ele><time>2026-08-16T09:02:06Z</time></trkpt><trkpt lat="59.2862615269" lon="34.7113680001"><ele>139.19</ele><time>2026-08-16T09:02:20Z</time></trkpt><trkpt lat="59.2860054597" lon="34.7116374783"><ele>139.33</ele><time>2026-08-16T09:02:29Z</time></trkpt><trkpt lat="59.2855273560" lon="34.7122688871"><ele>140.74</ele><time>2026-08-16T09:02:40Z</time></trkpt><trkpt lat="59.2853939161" lon="34.7124666162"><ele>140.14</ele><time>2026-08-16T09:02:49Z</time></trkpt><trkpt lat="59.2854258511" lon="34.7124226112"><ele>140.25</ele><time>2026-08-16T09:02:51Z</time></trkpt><trkpt lat="59.2855251767" lon="34.7122946195"><ele>139.78</ele><time>2026-08-16T09:03:01Z</time></trkpt><trkpt lat="59.2855230812" lon="34.7123017441"><ele>140.00</ele><time>2026-08-16T09:03:30Z</time></trkpt><trkpt lat="59.2854831833" lon="34.7123630159"><ele>139.90</ele><time>2026-08-16T09:03:51Z</time></trkpt><trkpt lat="59.2854231689" lon="34.7124747466"><ele>140.51</ele><time>2026-08-16T09:03:54Z</time></trkpt><trkpt lat="59.2853247654" lon="34.7126656026"><ele>141.07</ele><time>2026-08-16T09:03:57Z</time></trkpt><trkpt lat="59.2851692811" lon="34.7130152117"><ele>141.42</ele><time>2026-08-16T09:04:01Z</time></trkpt><trkpt lat="59.2847144790" lon="34.7144601680"><ele>142.25</ele><time>2026-08-16T09:04:13Z</time></trkpt><trkpt lat="59.2843895964" lon="34.7157269251"><ele>141.67</ele><time>2026-08-16T09:04:24Z</time></trkpt><trkpt lat="59.2843679711" lon="34.7158052959"><ele>141.39</ele><time>2026-08-16T09:04:31Z</time></trkpt><trkpt lat="59.2843352817" lon="34.7159423400"><ele>141.82</ele><time>2026-08-16T09:04:34Z</time></trkpt><trkpt lat="59.2840862554" lon="34.7169148084"><ele>143.24</ele><time>2026-08-16T09:04:43Z</time></trkpt><trkpt lat="59.2838773783" lon="34.7183868382"><ele>143.03</ele><time>2026-08-16T09:04:54Z</time></trkpt><trkpt lat="59.2835777253" lon="34.7201566771"><ele>143.41</ele><time>2026-08-16T09:05:07Z</time></trkpt><trkpt lat="59.2835194711" lon="34.7205292527"><ele>143.14</ele><time>2026-08-16T09:05:10Z</time></trkpt><trkpt lat="59.2831887212" lon="34.7225782927"><ele>142.76</ele><time>2026-08-16T09:05:25Z</time></trkpt><trkpt lat="59.2828288861" lon="34.7247351240"><ele>143.72</ele><time>2026-08-16T09:05:40Z</time></trkpt><trkpt lat="59.2824672069" lon="34.7267368902"><ele>143.30</ele><time>2026-08-16T09:05:53Z</time></trkpt><trkpt lat="59.2820043582" lon="34.7290535644"><ele>141.97</ele><time>2026-08-16T09:06:09Z</time></trkpt><trkpt lat="59.2819530610" lon="34.7306894604"><ele>141.22</ele><time>2026-08-16T09:06:20Z</time></trkpt><trkpt lat="59.2819858342" lon="34.7311666422"><ele>140.39</ele><time>2026-08-16T09:06:25Z</time></trkpt><trkpt lat="59.2820590921" lon="34.7317850590"><ele>140.19</ele><time>2026-08-16T09:06:37Z</time></trkpt><trkpt lat="59.2821279913" lon="34.7325920686"><ele>140.05</ele><time>2026-08-16T09:06:51Z</time></trkpt><trkpt lat="59.2821272369" lon="34.7335967235"><ele>139.98</ele><time>2026-08-16T09:07:05Z</time></trkpt><trkpt lat="59.2820957210" lon="34.7338517010"><ele>140.26</ele><time>2026-08-16T09:07:08Z</time></trkpt><trkpt lat="59.2820746824" lon="34.7339503560"><ele>140.30</ele><time>2026-08-16T09:07:09Z</time></trkpt><trkpt lat="59.2820170149" lon="34.7341640107"><ele>140.69</ele><time>2026-08-16T09:07:11Z</time></trkpt><trkpt lat="59.2819764465" lon="34.7342659347"><ele>141.07</ele><time>2026-08-16T09:07:12Z</time></trkpt><trkpt lat="59.2819293402" lon="34.7343595605"><ele>141.04</ele><time>2026-08-16T09:07:13Z</time></trkpt><trkpt lat="59.2816168629" lon="34.7348138597"><ele>139.98</ele><time>2026-08-16T09:07:22Z</time></trkpt><trkpt lat="59.2813046370" lon="34.7353953961"><ele>139.70</ele><time>2026-08-16T09:07:32Z</time></trkpt><trkpt lat="59.2812185548" lon="34.7357484419"><ele>139.65</ele><time>2026-08-16T09:07:36Z</time></trkpt><trkpt lat="59.2811904754" lon="34.7359099612"><ele>139.06</ele><time>2026-08-16T09:07:38Z</time></trkpt><trkpt lat="59.2811792437" lon="34.7359795310"><ele>138.88</ele><time>2026-08-16T09:07:39Z</time></trkpt><trkpt lat="59.2811694369" lon="34.7360464185"><ele>138.90</ele><time>2026-08-16T09:07:40Z</time></trkpt><trkpt lat="59.2811585404" lon="34.7361336742"><ele>138.90</ele><time>2026-08-16T09:07:41Z</time></trkpt><trkpt lat="59.2811119370" lon="34.7367136180"><ele>138.34</ele><time>2026-08-16T09:07:49Z</time></trkpt><trkpt lat="59.2811272759" lon="34.7367660888"><ele>138.72</ele><time>2026-08-16T09:07:50Z</time></trkpt><trkpt lat="59.2811562773" lon="34.7368064895"><ele>138.93</ele><time>2026-08-16T09:07:51Z</time></trkpt><trkpt lat="59.2812027130" lon="34.7368283663"><ele>139.04</ele><time>2026-08-16T09:07:52Z</time></trkpt><trkpt lat="59.2812613025" lon="34.7368455492"><ele>139.32</ele><time>2026-08-16T09:07:53Z</time></trkpt><trkpt lat="59.2820532247" lon="34.7370383330"><ele>142.60</ele><time>2026-08-16T09:08:02Z</time></trkpt><trkpt lat="59.2821686435" lon="34.7370563541"><ele>142.81</ele><time>2026-08-16T09:08:03Z</time></trkpt><trkpt lat="59.2835135199" lon="34.7369312961"><ele>142.97</ele><time>2026-08-16T09:08:13Z</time></trkpt><trkpt lat="59.2855517473" lon="34.7364048287"><ele>143.32</ele><time>2026-08-16T09:08:27Z</time></trkpt><trkpt lat="59.2873836122" lon="34.7359900922"><ele>143.60</ele><time>2026-08-16T09:08:40Z</time></trkpt><trkpt lat="59.2890882399" lon="34.7355639562"><ele>145.38</ele><time>2026-08-16T09:08:52Z</time></trkpt><trkpt lat="59.2904733494" lon="34.7347698547"><ele>147.34</ele><time>2026-08-16T09:09:02Z</time></trkpt><trkpt lat="59.2920264322" lon="34.7338204365"><ele>148.22</ele><time>2026-08-16T09:09:13Z</time></trkpt><trkpt lat="59.2933775112" lon="34.7329289373"><ele>149.44</ele><time>2026-08-16T09:09:23Z</time></trkpt><trkpt lat="59.2948323581" lon="34.7313160077"><ele>152.51</ele><time>2026-08-16T09:09:34Z</time></trkpt><trkpt lat="59.2951963842" lon="34.7308670729"><ele>151.16</ele><time>2026-08-16T09:09:37Z</time></trkpt><trkpt lat="59.2967631295" lon="34.7289233096"><ele>150.06</ele><time>2026-08-16T09:09:50Z</time></trkpt><trkpt lat="59.2979847081" lon="34.7270697355"><ele>149.19</ele><time>2026-08-16T09:10:02Z</time></trkpt><trkpt lat="59.2991586775" lon="34.7249211185"><ele>151.88</ele><time>2026-08-16T09:10:14Z</time></trkpt><trkpt lat="59.3003348261" lon="34.7226155922"><ele>152.25</ele><time>2026-08-16T09:10:26Z</time></trkpt><trkpt lat="59.3019051757" lon="34.7195566166"><ele>149.44</ele><time>2026-08-16T09:10:42Z</time></trkpt><trkpt lat="59.3025881331" lon="34.7174620628"><ele>150.15</ele><time>2026-08-16T09:10:52Z</time></trkpt><trkpt lat="59.3034502119" lon="34.7145977989"><ele>150.44</ele><time>2026-08-16T09:11:05Z</time></trkpt><trkpt lat="59.3039142340" lon="34.7134525795"><ele>151.56</ele><time>2026-08-16T09:11:11Z</time></trkpt><trkpt lat="59.3040081114" lon="34.7133066505"><ele>151.84</ele><time>2026-08-16T09:11:12Z</time></trkpt><trkpt lat="59.3041163217" lon="34.7131884657"><ele>151.54</ele><time>2026-08-16T09:11:13Z</time></trkpt><trkpt lat="59.3042230234" lon="34.7130925767"><ele>151.15</ele><time>2026-08-16T09:11:14Z</time></trkpt><trkpt lat="59.3043312337" lon="34.7130040638"><ele>150.49</ele><time>2026-08-16T09:11:15Z</time></trkpt><trkpt lat="59.3044402823" lon="34.7129265312"><ele>150.80</ele><time>2026-08-16T09:11:16Z</time></trkpt><trkpt lat="59.3045511749" lon="34.7128546983"><ele>150.93</ele><time>2026-08-16T09:11:17Z</time></trkpt><trkpt lat="59.3058759347" lon="34.7125591524"><ele>150.87</ele><time>2026-08-16T09:11:27Z</time></trkpt><trkpt lat="59.3078480288" lon="34.7127789259"><ele>151.42</ele><time>2026-08-16T09:11:41Z</time></trkpt><trkpt lat="59.3097981624" lon="34.7130401060"><ele>153.74</ele><time>2026-08-16T09:11:55Z</time></trkpt><trkpt lat="59.3114322145" lon="34.7131284513"><ele>151.91</ele><time>2026-08-16T09:12:07Z</time></trkpt><trkpt lat="59.3126131408" lon="34.7129417025"><ele>149.43</ele><time>2026-08-16T09:12:16Z</time></trkpt><trkpt lat="59.3133732956" lon="34.7127693705"><ele>147.52</ele><time>2026-08-16T09:12:25Z</time></trkpt><trkpt lat="59.3135729525" lon="34.7127189953"><ele>147.13</ele><time>2026-08-16T09:12:34Z</time></trkpt><trkpt lat="59.3135497347" lon="34.7127075959"><ele>147.26</ele><time>2026-08-16T09:13:02Z</time></trkpt><trkpt lat="59.3135132734" lon="34.7127166484"><ele>147.38</ele><time>2026-08-16T09:13:36Z</time></trkpt><trkpt lat="59.3138553388" lon="34.7126228549"><ele>149.17</ele><time>2026-08-16T09:13:51Z</time></trkpt><trkpt lat="59.3142569996" lon="34.7125662770"><ele>150.99</ele><time>2026-08-16T09:13:56Z</time></trkpt><trkpt lat="59.3154153787" lon="34.7124967910"><ele>153.66</ele><time>2026-08-16T09:14:07Z</time></trkpt><trkpt lat="59.3171641789" lon="34.7125229426"><ele>154.31</ele><time>2026-08-16T09:14:21Z</time></trkpt><trkpt lat="59.3189584091" lon="34.7128433827"><ele>156.39</ele><time>2026-08-16T09:14:34Z</time></trkpt><trkpt lat="59.3208976462" lon="34.7131475620"><ele>155.77</ele><time>2026-08-16T09:14:48Z</time></trkpt><trkpt lat="59.3225932214" lon="34.7134871967"><ele>157.74</ele><time>2026-08-16T09:15:00Z</time></trkpt><trkpt lat="59.3237530254" lon="34.7140383907"><ele>161.33</ele><time>2026-08-16T09:15:09Z</time></trkpt><trkpt lat="59.3251885101" lon="34.7147891577"><ele>162.81</ele><time>2026-08-16T09:15:19Z</time></trkpt><trkpt lat="59.3269602768" lon="34.7158808168"><ele>161.66</ele><time>2026-08-16T09:15:31Z</time></trkpt><trkpt lat="59.3282052409" lon="34.7170236055"><ele>163.22</ele><time>2026-08-16T09:15:40Z</time></trkpt><trkpt lat="59.3288513180" lon="34.7179081477"><ele>157.87</ele><time>2026-08-16T09:15:46Z</time></trkpt><trkpt lat="59.3289636355" lon="34.7180786356"><ele>157.57</ele><time>2026-08-16T09:15:47Z</time></trkpt><trkpt lat="59.3294875044" lon="34.7189968731"><ele>160.84</ele><time>2026-08-16T09:15:52Z</time></trkpt><trkpt lat="59.3296878319" lon="34.7193484101"><ele>161.59</ele><time>2026-08-16T09:15:54Z</time></trkpt><trkpt lat="59.3301903270" lon="34.7202420887"><ele>159.30</ele><time>2026-08-16T09:15:59Z</time></trkpt><trkpt lat="59.3315668032" lon="34.7227394767"><ele>160.39</ele><time>2026-08-16T09:16:13Z</time></trkpt><trkpt lat="59.3324174825" lon="34.7240352351"><ele>157.10</ele><time>2026-08-16T09:16:21Z</time></trkpt><trkpt lat="59.3333195429" lon="34.7247999161"><ele>153.95</ele><time>2026-08-16T09:16:28Z</time></trkpt><trkpt lat="59.3334623706" lon="34.7248586733"><ele>153.85</ele><time>2026-08-16T09:16:29Z</time></trkpt><trkpt lat="59.3350721151" lon="34.7251636069"><ele>153.75</ele><time>2026-08-16T09:16:41Z</time></trkpt><trkpt lat="59.3369954266" lon="34.7253469191"><ele>155.93</ele><time>2026-08-16T09:16:56Z</time></trkpt><trkpt lat="59.3385613337" lon="34.7259550262"><ele>155.93</ele><time>2026-08-16T09:17:08Z</time></trkpt><trkpt lat="59.3399088923" lon="34.7271376289"><ele>157.51</ele><time>2026-08-16T09:17:20Z</time></trkpt><trkpt lat="59.3416129332" lon="34.7295869887"><ele>157.55</ele><time>2026-08-16T09:17:35Z</time></trkpt><trkpt lat="59.3432450574" lon="34.7318299022"><ele>158.38</ele><time>2026-08-16T09:17:50Z</time></trkpt><trkpt lat="59.3444840703" lon="34.7327067330"><ele>156.30</ele><time>2026-08-16T09:17:59Z</time></trkpt><trkpt lat="59.3446361180" lon="34.7327614669"><ele>156.01</ele><time>2026-08-16T09:18:00Z</time></trkpt><trkpt lat="59.3465058692" lon="34.7333582584"><ele>152.11</ele><time>2026-08-16T09:18:13Z</time></trkpt><trkpt lat="59.3466357049" lon="34.7333978210"><ele>152.03</ele><time>2026-08-16T09:18:14Z</time></trkpt><trkpt lat="59.3477974366" lon="34.7337133996"><ele>148.69</ele><time>2026-08-16T09:18:25Z</time></trkpt><trkpt lat="59.3478612229" lon="34.7337108850"><ele>148.41</ele><time>2026-08-16T09:18:26Z</time></trkpt><trkpt lat="59.3481307849" lon="34.7337017488"><ele>147.41</ele><time>2026-08-16T09:18:35Z</time></trkpt><trkpt lat="59.3480566051" lon="34.7336014174"><ele>147.37</ele><time>2026-08-16T09:19:04Z</time></trkpt><trkpt lat="59.3480442837" lon="34.7336042672"><ele>147.78</ele><time>2026-08-16T09:19:53Z</time></trkpt><trkpt lat="59.3481464591" lon="34.7335994896"><ele>147.44</ele><time>2026-08-16T09:20:02Z</time></trkpt><trkpt lat="59.3481664080" lon="34.7336196061"><ele>147.35</ele><time>2026-08-16T09:20:03Z</time></trkpt><trkpt lat="59.3481985107" lon="34.7336866613"><ele>147.40</ele><time>2026-08-16T09:20:05Z</time></trkpt><trkpt lat="59.3482289370" lon="34.7338466719"><ele>147.33</ele><time>2026-08-16T09:20:08Z</time></trkpt><trkpt lat="59.3483134266" lon="34.7345089260"><ele>147.16</ele><time>2026-08-16T09:20:23Z</time></trkpt><trkpt lat="59.3484528176" lon="34.7353168577"><ele>146.06</ele><time>2026-08-16T09:20:38Z</time></trkpt><trkpt lat="59.3486016802" lon="34.7362293955"><ele>144.45</ele><time>2026-08-16T09:20:53Z</time></trkpt><trkpt lat="59.3487744313" lon="34.7371902131"><ele>146.29</ele><time>2026-08-16T09:21:10Z</time></trkpt><trkpt lat="59.3489548936" lon="34.7382655274"><ele>148.51</ele><time>2026-08-16T09:21:27Z</time></trkpt><trkpt lat="59.3490477651" lon="34.7388868779"><ele>148.90</ele><time>2026-08-16T09:21:41Z</time></trkpt><trkpt lat="59.3490553927" lon="34.7389256023"><ele>149.02</ele><time>2026-08-16T09:21:42Z</time></trkpt><trkpt lat="59.3490712345" lon="34.7390985209"><ele>149.63</ele><time>2026-08-16T09:21:45Z</time></trkpt><trkpt lat="59.3490739167" lon="34.7391716950"><ele>149.73</ele><time>2026-08-16T09:21:46Z</time></trkpt><trkpt lat="59.3490740843" lon="34.7392538376"><ele>149.84</ele><time>2026-08-16T09:21:47Z</time></trkpt><trkpt lat="59.3490219489" lon="34.7402706463"><ele>150.87</ele><time>2026-08-16T09:22:00Z</time></trkpt><trkpt lat="59.3488826416" lon="34.7414323781"><ele>148.30</ele><time>2026-08-16T09:22:14Z</time></trkpt><trkpt lat="59.3488061149" lon="34.7421474382"><ele>147.01</ele><time>2026-08-16T09:22:26Z</time></trkpt><trkpt lat="59.3487868365" lon="34.7422779445"><ele>147.11</ele><time>2026-08-16T09:22:29Z</time></trkpt><trkpt lat="59.3487040233" lon="34.7427511029"><ele>147.76</ele><time>2026-08-16T09:22:40Z</time></trkpt><trkpt lat="59.3486723397" lon="34.7429233510"><ele>148.20</ele><time>2026-08-16T09:22:43Z</time></trkpt><trkpt lat="59.3485901970" lon="34.7435781453"><ele>148.69</ele><time>2026-08-16T09:22:57Z</time></trkpt><trkpt lat="59.3484319467" lon="34.7442681435"><ele>149.03</ele><time>2026-08-16T09:23:13Z</time></trkpt><trkpt lat="59.3483477924" lon="34.7445318382"><ele>149.00</ele><time>2026-08-16T09:23:19Z</time></trkpt><trkpt lat="59.3482139334" lon="34.7452292964"><ele>149.60</ele><time>2026-08-16T09:23:36Z</time></trkpt><trkpt lat="59.3480874505" lon="34.7457319591"><ele>149.38</ele><time>2026-08-16T09:23:50Z</time></trkpt><trkpt lat="59.3480520789" lon="34.7459367290"><ele>149.11</ele><time>2026-08-16T09:23:57Z</time></trkpt><trkpt lat="59.3480291963" lon="34.7461119946"><ele>149.04</ele><time>2026-08-16T09:24:18Z</time></trkpt><trkpt lat="59.3480148632" lon="34.7461976577"><ele>148.83</ele><time>2026-08-16T09:24:22Z</time></trkpt><trkpt lat="59.3479791563" lon="34.7467702255"><ele>147.04</ele><time>2026-08-16T09:24:46Z</time></trkpt><trkpt lat="59.3479914777" lon="34.7469246201"><ele>149.64</ele><time>2026-08-16T09:24:53Z</time></trkpt><trkpt lat="59.3481592834" lon="34.7478071507"><ele>150.57</ele><time>2026-08-16T09:25:19Z</time></trkpt><trkpt lat="59.3482630514" lon="34.7485737596"><ele>151.56</ele><time>2026-08-16T09:25:36Z</time></trkpt><trkpt lat="59.3483057991" lon="34.7492456529"><ele>151.26</ele><time>2026-08-16T09:25:51Z</time></trkpt><trkpt lat="59.3483312801" lon="34.7495483235"><ele>151.14</ele><time>2026-08-16T09:26:02Z</time></trkpt><trkpt lat="59.3484208826" lon="34.7508186847"><ele>150.69</ele><time>2026-08-16T09:26:39Z</time></trkpt><trkpt lat="59.3484231457" lon="34.7508989833"><ele>150.69</ele><time>2026-08-16T09:26:41Z</time></trkpt><trkpt lat="59.3484257441" lon="34.7509473469"><ele>150.78</ele><time>2026-08-16T09:26:42Z</time></trkpt><trkpt lat="59.3484305218" lon="34.7509922739"><ele>150.76</ele><time>2026-08-16T09:26:43Z</time></trkpt><trkpt lat="59.3484451063" lon="34.7513568029"><ele>150.16</ele><time>2026-08-16T09:26:53Z</time></trkpt><trkpt lat="59.3483109120" lon="34.7530982271"><ele>149.44</ele><time>2026-08-16T09:27:42Z</time></trkpt><trkpt lat="59.3483015243" lon="34.7531524580"><ele>149.28</ele><time>2026-08-16T09:27:43Z</time></trkpt><trkpt lat="59.3482810725" lon="34.7532413062"><ele>149.06</ele><time>2026-08-16T09:27:44Z</time></trkpt><trkpt lat="59.3480955809" lon="34.7538740560"><ele>147.57</ele><time>2026-08-16T09:27:57Z</time></trkpt><trkpt lat="59.3480369914" lon="34.7541484796"><ele>146.67</ele><time>2026-08-16T09:28:09Z</time></trkpt><trkpt lat="59.3478911463" lon="34.7549280804"><ele>145.96</ele><time>2026-08-16T09:28:34Z</time></trkpt><trkpt lat="59.3478618935" lon="34.7551748436"><ele>146.01</ele><time>2026-08-16T09:28:44Z</time></trkpt><trkpt lat="59.3477906473" lon="34.7558736429"><ele>146.13</ele><time>2026-08-16T09:28:58Z</time></trkpt><trkpt lat="59.3477804214" lon="34.7559612337"><ele>146.05</ele><time>2026-08-16T09:28:59Z</time></trkpt><trkpt lat="59.3477156293" lon="34.7566463705"><ele>145.05</ele><time>2026-08-16T09:29:16Z</time></trkpt><trkpt lat="59.3476309720" lon="34.7570654657"><ele>144.56</ele><time>2026-08-16T09:29:26Z</time></trkpt><trkpt lat="59.3476095144" lon="34.7571986541"><ele>144.33</ele><time>2026-08-16T09:29:29Z</time></trkpt><trkpt lat="59.3476064131" lon="34.7572353669"><ele>144.29</ele><time>2026-08-16T09:29:30Z</time></trkpt><trkpt lat="59.3475876376" lon="34.7574031726"><ele>144.26</ele><time>2026-08-16T09:29:34Z</time></trkpt><trkpt lat="59.3475426268" lon="34.7578824498"><ele>144.35</ele><time>2026-08-16T09:29:46Z</time></trkpt><trkpt lat="59.3475059140" lon="34.7582209110"><ele>144.34</ele><time>2026-08-16T09:29:52Z</time></trkpt><trkpt lat="59.3473495916" lon="34.7589907888"><ele>144.39</ele><time>2026-08-16T09:30:06Z</time></trkpt><trkpt lat="59.3470480945" lon="34.7595621832"><ele>144.02</ele><time>2026-08-16T09:30:20Z</time></trkpt><trkpt lat="59.3469351903" lon="34.7598203458"><ele>143.71</ele><time>2026-08-16T09:30:30Z</time></trkpt><trkpt lat="59.3468553945" lon="34.7601120360"><ele>143.50</ele><time>2026-08-16T09:30:37Z</time></trkpt><trkpt lat="59.3468363676" lon="34.7601704579"><ele>143.56</ele><time>2026-08-16T09:30:38Z</time></trkpt><trkpt lat="59.3468108866" lon="34.7602330707"><ele>143.53</ele><time>2026-08-16T09:30:39Z</time></trkpt><trkpt lat="59.3467915244" lon="34.7602969408"><ele>143.40</ele><time>2026-08-16T09:30:40Z</time></trkpt><trkpt lat="59.3467066996" lon="34.7607581131"><ele>142.78</ele><time>2026-08-16T09:30:52Z</time></trkpt><trkpt lat="59.3466999102" lon="34.7608917207"><ele>142.63</ele><time>2026-08-16T09:30:57Z</time></trkpt><trkpt lat="59.3467347790" lon="34.7612933815"><ele>142.71</ele><time>2026-08-16T09:31:07Z</time></trkpt><trkpt lat="59.3467583321" lon="34.7616357822"><ele>142.50</ele><time>2026-08-16T09:31:14Z</time></trkpt><trkpt lat="59.3467570748" lon="34.7617044300"><ele>142.44</ele><time>2026-08-16T09:31:15Z</time></trkpt><trkpt lat="59.3468037620" lon="34.7622043267"><ele>141.83</ele><time>2026-08-16T09:31:28Z</time></trkpt><trkpt lat="59.3468254711" lon="34.7623968590"><ele>141.68</ele><time>2026-08-16T09:31:32Z</time></trkpt><trkpt lat="59.3468450848" lon="34.7626349051"><ele>141.28</ele><time>2026-08-16T09:31:37Z</time></trkpt><trkpt lat="59.3469180074" lon="34.7637963854"><ele>141.76</ele><time>2026-08-16T09:31:57Z</time></trkpt><trkpt lat="59.3470334262" lon="34.7648317181"><ele>139.29</ele><time>2026-08-16T09:32:13Z</time></trkpt><trkpt lat="59.3470473401" lon="34.7653364763"><ele>139.25</ele><time>2026-08-16T09:32:23Z</time></trkpt><trkpt lat="59.3470864836" lon="34.7658621892"><ele>140.04</ele><time>2026-08-16T09:32:30Z</time></trkpt><trkpt lat="59.3470829632" lon="34.7659548931"><ele>140.26</ele><time>2026-08-16T09:32:31Z</time></trkpt><trkpt lat="59.3470706418" lon="34.7669075802"><ele>141.30</ele><time>2026-08-16T09:32:43Z</time></trkpt><trkpt lat="59.3470458314" lon="34.7669831850"><ele>140.91</ele><time>2026-08-16T09:32:58Z</time></trkpt><trkpt lat="59.3471537903" lon="34.7670918982"><ele>142.00</ele><time>2026-08-16T09:33:13Z</time></trkpt><trkpt lat="59.3471066840" lon="34.7671130206"><ele>141.70</ele><time>2026-08-16T09:33:47Z</time></trkpt><trkpt lat="59.3471195921" lon="34.7672030423"><ele>142.09</ele><time>2026-08-16T09:34:08Z</time></trkpt><trkpt lat="59.3471188378" lon="34.7675310262"><ele>142.07</ele><time>2026-08-16T09:34:28Z</time></trkpt><trkpt lat="59.3471153174" lon="34.7677859198"><ele>142.40</ele><time>2026-08-16T09:34:44Z</time></trkpt><trkpt lat="59.3471041694" lon="34.7677435074"><ele>142.42</ele><time>2026-08-16T09:34:52Z</time></trkpt><trkpt lat="59.3471097015" lon="34.7676580958"><ele>142.01</ele><time>2026-08-16T09:34:56Z</time></trkpt><trkpt lat="59.3471268844" lon="34.7673853487"><ele>142.78</ele><time>2026-08-16T09:35:08Z</time></trkpt><trkpt lat="59.3471381161" lon="34.7671918105"><ele>142.49</ele><time>2026-08-16T09:35:16Z</time></trkpt><trkpt lat="59.3471369427" lon="34.7670147847"><ele>142.33</ele><time>2026-08-16T09:35:29Z</time></trkpt><trkpt lat="59.3471129704" lon="34.7670124378"><ele>142.43</ele><time>2026-08-16T09:35:33Z</time></trkpt><trkpt lat="59.3470901717" lon="34.7670250107"><ele>142.56</ele><time>2026-08-16T09:35:35Z</time></trkpt><trkpt lat="59.3470529560" lon="34.7670226637"><ele>142.39</ele><time>2026-08-16T09:35:38Z</time></trkpt><trkpt lat="59.3469733279" lon="34.7669281159"><ele>141.14</ele><time>2026-08-16T09:35:46Z</time></trkpt><trkpt lat="59.3469327595" lon="34.7669104300"><ele>141.02</ele><time>2026-08-16T09:35:49Z</time></trkpt><trkpt lat="59.3469168339" lon="34.7669458855"><ele>140.88</ele><time>2026-08-16T09:35:52Z</time></trkpt><trkpt lat="59.3468956277" lon="34.7670183890"><ele>140.92</ele><time>2026-08-16T09:35:56Z</time></trkpt><trkpt lat="59.3468644470" lon="34.7671260964"><ele>140.11</ele><time>2026-08-16T09:36:10Z</time></trkpt><trkpt lat="59.3468341883" lon="34.7672921419"><ele>139.58</ele><time>2026-08-16T09:36:26Z</time></trkpt><trkpt lat="59.3468227889" lon="34.7672940698"><ele>139.79</ele><time>2026-08-16T09:36:51Z</time></trkpt><trkpt lat="59.3468820490" lon="34.7671199776"><ele>140.80</ele><time>2026-08-16T09:37:07Z</time></trkpt><trkpt lat="59.3469079491" lon="34.7670268547"><ele>141.12</ele><time>2026-08-16T09:37:13Z</time></trkpt><trkpt lat="59.3469567318" lon="34.7670442052"><ele>141.75</ele><time>2026-08-16T09:37:28Z</time></trkpt><trkpt lat="59.3469783571" lon="34.7673290223"><ele>141.83</ele><time>2026-08-16T09:37:45Z</time></trkpt><trkpt lat="59.3469651975" lon="34.7675946448"><ele>142.33</ele><time>2026-08-16T09:38:02Z</time></trkpt><trkpt lat="59.3469810393" lon="34.7678611893"><ele>142.34</ele><time>2026-08-16T09:38:20Z</time></trkpt><trkpt lat="59.3470148183" lon="34.7681477666"><ele>141.95</ele><time>2026-08-16T09:38:40Z</time></trkpt><trkpt lat="59.3470066041" lon="34.7684266325"><ele>141.83</ele><time>2026-08-16T09:38:59Z</time></trkpt><trkpt lat="59.3470023293" lon="34.7686438914"><ele>142.02</ele><time>2026-08-16T09:39:15Z</time></trkpt><trkpt lat="59.3470086996" lon="34.7690192331"><ele>142.20</ele><time>2026-08-16T09:39:35Z</time></trkpt><trkpt lat="59.3470128905" lon="34.7691312991"><ele>141.75</ele><time>2026-08-16T09:39:40Z</time></trkpt><trkpt lat="59.3470222782" lon="34.7693990171"><ele>141.73</ele><time>2026-08-16T09:39:56Z</time></trkpt><trkpt lat="59.3470080290" lon="34.7694586962"><ele>141.81</ele><time>2026-08-16T09:39:59Z</time></trkpt><trkpt lat="59.3469584920" lon="34.7697795555"><ele>141.75</ele><time>2026-08-16T09:40:20Z</time></trkpt><trkpt lat="59.3469814584" lon="34.7695602849"><ele>142.12</ele><time>2026-08-16T09:40:35Z</time></trkpt><trkpt lat="59.3469792791" lon="34.7695129272"><ele>141.93</ele><time>2026-08-16T09:40:37Z</time></trkpt><trkpt lat="59.3469675444" lon="34.7694356460"><ele>142.02</ele><time>2026-08-16T09:40:40Z</time></trkpt><trkpt lat="59.3469578214" lon="34.7692244221"><ele>141.77</ele><time>2026-08-16T09:40:47Z</time></trkpt><trkpt lat="59.3469476793" lon="34.7689260263"><ele>141.82</ele><time>2026-08-16T09:41:00Z</time></trkpt><trkpt lat="59.3469437398" lon="34.7688965220"><ele>141.91</ele><time>2026-08-16T09:41:01Z</time></trkpt><trkpt lat="59.3469309155" lon="34.7686284687"><ele>141.64</ele><time>2026-08-16T09:41:10Z</time></trkpt><trkpt lat="59.3469389621" lon="34.7685375251"><ele>141.69</ele><time>2026-08-16T09:41:14Z</time></trkpt><trkpt lat="59.3469435722" lon="34.7684412170"><ele>141.96</ele><time>2026-08-16T09:41:18Z</time></trkpt><trkpt lat="59.3469330110" lon="34.7680934519"><ele>142.51</ele><time>2026-08-16T09:41:29Z</time></trkpt><trkpt lat="59.3469261378" lon="34.7677696589"><ele>142.87</ele><time>2026-08-16T09:41:39Z</time></trkpt><trkpt lat="59.3469247967" lon="34.7675526515"><ele>142.52</ele><time>2026-08-16T09:41:51Z</time></trkpt><trkpt lat="59.3469247129" lon="34.7673579399"><ele>142.31</ele><time>2026-08-16T09:41:58Z</time></trkpt><trkpt lat="59.3469387107" lon="34.7672360670"><ele>142.22</ele><time>2026-08-16T09:42:02Z</time></trkpt><trkpt lat="59.3470682111" lon="34.7670913953"><ele>142.91</ele><time>2026-08-16T09:42:14Z</time></trkpt><trkpt lat="59.3471044209" lon="34.7670587059"><ele>143.44</ele><time>2026-08-16T09:42:29Z</time></trkpt><trkpt lat="59.3471186701" lon="34.7670867015"><ele>143.80</ele><time>2026-08-16T09:42:58Z</time></trkpt><trkpt lat="59.3471499346" lon="34.7670682613"><ele>144.34</ele><time>2026-08-16T09:43:36Z</time></trkpt><trkpt lat="59.3471967895" lon="34.7671486437"><ele>144.48</ele><time>2026-08-16T09:44:20Z</time></trkpt><trkpt lat="59.3471241184" lon="34.7670681775"><ele>144.91</ele><time>2026-08-16T09:45:09Z</time></trkpt><trkpt lat="59.3471020740" lon="34.7670718655"><ele>144.82</ele><time>2026-08-16T09:45:13Z</time></trkpt><trkpt lat="59.3470053468" lon="34.7670996934"><ele>144.42</ele><time>2026-08-16T09:45:34Z</time></trkpt><trkpt lat="59.3469819613" lon="34.7671547625"><ele>144.44</ele><time>2026-08-16T09:45:48Z</time></trkpt><trkpt lat="59.3469713163" lon="34.7675517295"><ele>145.16</ele><time>2026-08-16T09:45:57Z</time></trkpt><trkpt lat="59.3469720706" lon="34.7680536378"><ele>144.32</ele><time>2026-08-16T09:46:09Z</time></trkpt><trkpt lat="59.3469367828" lon="34.7682819609"><ele>143.93</ele><time>2026-08-16T09:46:20Z</time></trkpt><trkpt lat="59.3469420634" lon="34.7683345992"><ele>144.18</ele><time>2026-08-16T09:46:22Z</time></trkpt><trkpt lat="59.3469657004" lon="34.7685776744"><ele>144.17</ele><time>2026-08-16T09:46:31Z</time></trkpt><trkpt lat="59.3469511997" lon="34.7689831909"><ele>144.36</ele><time>2026-08-16T09:46:45Z</time></trkpt><trkpt lat="59.3467303365" lon="34.7700400651"><ele>145.28</ele><time>2026-08-16T09:47:14Z</time></trkpt><trkpt lat="59.3466310110" lon="34.7704346012"><ele>145.59</ele><time>2026-08-16T09:47:26Z</time></trkpt><trkpt lat="59.3465584237" lon="34.7707316559"><ele>146.27</ele><time>2026-08-16T09:47:32Z</time></trkpt><trkpt lat="59.3465235550" lon="34.7712003719"><ele>146.71</ele><time>2026-08-16T09:47:40Z</time></trkpt><trkpt lat="59.3465240579" lon="34.7720034420"><ele>145.65</ele><time>2026-08-16T09:47:55Z</time></trkpt><trkpt lat="59.3465528078" lon="34.7724102996"><ele>144.82</ele><time>2026-08-16T09:48:03Z</time></trkpt><trkpt lat="59.3466763571" lon="34.7730246931"><ele>143.15</ele><time>2026-08-16T09:48:17Z</time></trkpt><trkpt lat="59.3465441745" lon="34.7732379287"><ele>143.66</ele><time>2026-08-16T09:48:38Z</time></trkpt><trkpt lat="59.3465181068" lon="34.7732610628"><ele>143.82</ele><time>2026-08-16T09:48:42Z</time></trkpt><trkpt lat="59.3464497942" lon="34.7733778227"><ele>143.36</ele><time>2026-08-16T09:48:47Z</time></trkpt><trkpt lat="59.3462565914" lon="34.7734646592"><ele>143.26</ele><time>2026-08-16T09:49:00Z</time></trkpt><trkpt lat="59.3461063039" lon="34.7735195607"><ele>143.28</ele><time>2026-08-16T09:49:13Z</time></trkpt><trkpt lat="59.3459460419" lon="34.7736299504"><ele>143.59</ele><time>2026-08-16T09:49:28Z</time></trkpt><trkpt lat="59.3459362350" lon="34.7736400086"><ele>143.56</ele><time>2026-08-16T09:49:29Z</time></trkpt><trkpt lat="59.3458083272" lon="34.7737132665"><ele>143.47</ele><time>2026-08-16T09:49:43Z</time></trkpt><trkpt lat="59.3456527591" lon="34.7738146875"><ele>143.57</ele><time>2026-08-16T09:50:02Z</time></trkpt><trkpt lat="59.3457327224" lon="34.7737928946"><ele>143.49</ele><time>2026-08-16T09:50:12Z</time></trkpt><trkpt lat="59.3458552659" lon="34.7738028690"><ele>144.26</ele><time>2026-08-16T09:50:28Z</time></trkpt><trkpt lat="59.3459012825" lon="34.7739048768"><ele>142.97</ele><time>2026-08-16T09:50:45Z</time></trkpt><trkpt lat="59.3459307030" lon="34.7739073075"><ele>143.21</ele><time>2026-08-16T09:51:14Z</time></trkpt><trkpt lat="59.3459709361" lon="34.7738708463"><ele>143.12</ele><time>2026-08-16T09:51:47Z</time></trkpt><trkpt lat="59.3459394202" lon="34.7737273481"><ele>144.76</ele><time>2026-08-16T09:52:04Z</time></trkpt><trkpt lat="59.3459500652" lon="34.7737037111"><ele>144.82</ele><time>2026-08-16T09:52:06Z</time></trkpt><trkpt lat="59.3459930643" lon="34.7736631427"><ele>144.50</ele><time>2026-08-16T09:52:10Z</time></trkpt><trkpt lat="59.3460481334" lon="34.7736307885"><ele>144.35</ele><time>2026-08-16T09:52:15Z</time></trkpt><trkpt lat="59.3462639675" lon="34.7734799981"><ele>144.54</ele><time>2026-08-16T09:52:31Z</time></trkpt><trkpt lat="59.3464601040" lon="34.7732752282"><ele>144.79</ele><time>2026-08-16T09:52:47Z</time></trkpt><trkpt lat="59.3465070426" lon="34.7732440475"><ele>144.75</ele><time>2026-08-16T09:52:52Z</time></trkpt><trkpt lat="59.3465733435" lon="34.7732523456"><ele>144.66</ele><time>2026-08-16T09:52:56Z</time></trkpt><trkpt lat="59.3465879280" lon="34.7732635774"><ele>144.76</ele><time>2026-08-16T09:52:58Z</time></trkpt><trkpt lat="59.3467068672" lon="34.7732314747"><ele>144.62</ele><time>2026-08-16T09:53:12Z</time></trkpt><trkpt lat="59.3468781933" lon="34.7731697001"><ele>146.61</ele><time>2026-08-16T09:53:29Z</time></trkpt><trkpt lat="59.3470911775" lon="34.7731378488"><ele>147.40</ele><time>2026-08-16T09:53:47Z</time></trkpt><trkpt lat="59.3473672774" lon="34.7730563767"><ele>147.75</ele><time>2026-08-16T09:54:09Z</time></trkpt><trkpt lat="59.3475852069" lon="34.7729782574"><ele>148.70</ele><time>2026-08-16T09:54:31Z</time></trkpt><trkpt lat="59.3476305529" lon="34.7729553748"><ele>148.85</ele><time>2026-08-16T09:54:36Z</time></trkpt><trkpt lat="59.3477594666" lon="34.7728366870"><ele>149.07</ele><time>2026-08-16T09:54:49Z</time></trkpt><trkpt lat="59.3479815871" lon="34.7727083601"><ele>148.73</ele><time>2026-08-16T09:55:13Z</time></trkpt><trkpt lat="59.3482081499" lon="34.7727724817"><ele>148.44</ele><time>2026-08-16T09:55:34Z</time></trkpt><trkpt lat="59.3483659811" lon="34.7726403829"><ele>148.57</ele><time>2026-08-16T09:55:52Z</time></trkpt><trkpt lat="59.3486314360" lon="34.7724986449"><ele>147.82</ele><time>2026-08-16T09:56:15Z</time></trkpt><trkpt lat="59.3488620222" lon="34.7724597529"><ele>148.14</ele><time>2026-08-16T09:56:35Z</time></trkpt><trkpt lat="59.3490237091" lon="34.7724208608"><ele>149.03</ele><time>2026-08-16T09:56:49Z</time></trkpt><trkpt lat="59.3491256330" lon="34.7725207731"><ele>148.91</ele><time>2026-08-16T09:57:03Z</time></trkpt><trkpt lat="59.3491277285" lon="34.7725224495"><ele>149.11</ele><time>2026-08-16T09:57:05Z</time></trkpt><trkpt lat="59.3491390441" lon="34.7725190967"><ele>149.10</ele><time>2026-08-16T09:57:34Z</time></trkpt><trkpt lat="59.3490017485" lon="34.7724387143"><ele>148.93</ele><time>2026-08-16T09:57:54Z</time></trkpt><trkpt lat="59.3488349486" lon="34.7724804562"><ele>148.29</ele><time>2026-08-16T09:58:12Z</time></trkpt><trkpt lat="59.3486633711" lon="34.7724918555"><ele>149.12</ele><time>2026-08-16T09:58:29Z</time></trkpt><trkpt lat="59.3485445995" lon="34.7725621797"><ele>149.89</ele><time>2026-08-16T09:58:41Z</time></trkpt><trkpt lat="59.3483202159" lon="34.7727240343"><ele>149.77</ele><time>2026-08-16T09:59:04Z</time></trkpt><trkpt lat="59.3481695093" lon="34.7727332544"><ele>150.80</ele><time>2026-08-16T09:59:19Z</time></trkpt><trkpt lat="59.3479304574" lon="34.7727488447"><ele>151.65</ele><time>2026-08-16T09:59:40Z</time></trkpt><trkpt lat="59.3479001150" lon="34.7727152333"><ele>151.74</ele><time>2026-08-16T09:59:55Z</time></trkpt><trkpt lat="59.3477383442" lon="34.7728868108"><ele>152.04</ele><time>2026-08-16T10:00:15Z</time></trkpt><trkpt lat="59.3475535233" lon="34.7729635891"><ele>151.38</ele><time>2026-08-16T10:00:34Z</time></trkpt><trkpt lat="59.3474361766" lon="34.7729944345"><ele>152.30</ele><time>2026-08-16T10:00:45Z</time></trkpt><trkpt lat="59.3473729771" lon="34.7730358411"><ele>152.04</ele><time>2026-08-16T10:00:50Z</time></trkpt><trkpt lat="59.3471221905" lon="34.7731063329"><ele>151.54</ele><time>2026-08-16T10:01:13Z</time></trkpt><trkpt lat="59.3468552269" lon="34.7731948458"><ele>149.34</ele><time>2026-08-16T10:01:32Z</time></trkpt><trkpt lat="59.3466702383" lon="34.7732630745"><ele>149.68</ele><time>2026-08-16T10:01:42Z</time></trkpt><trkpt lat="59.3465999980" lon="34.7732931655"><ele>149.90</ele><time>2026-08-16T10:01:55Z</time></trkpt><trkpt lat="59.3466052786" lon="34.7733469773"><ele>150.00</ele><time>2026-08-16T10:02:12Z</time></trkpt><trkpt lat="59.3466388062" lon="34.7733742185"><ele>150.01</ele><time>2026-08-16T10:02:33Z</time></trkpt><trkpt lat="59.3469063565" lon="34.7737115063"><ele>148.15</ele><time>2026-08-16T10:02:47Z</time></trkpt><trkpt lat="59.3469343521" lon="34.7737383284"><ele>147.97</ele><time>2026-08-16T10:02:48Z</time></trkpt><trkpt lat="59.3469633535" lon="34.7737627197"><ele>147.66</ele><time>2026-08-16T10:02:49Z</time></trkpt><trkpt lat="59.3470020778" lon="34.7737850994"><ele>147.42</ele><time>2026-08-16T10:02:50Z</time></trkpt><trkpt lat="59.3470376171" lon="34.7738184594"><ele>147.17</ele><time>2026-08-16T10:02:51Z</time></trkpt><trkpt lat="59.3475778308" lon="34.7742107324"><ele>144.04</ele><time>2026-08-16T10:03:06Z</time></trkpt><trkpt lat="59.3479894660" lon="34.7747652791"><ele>141.74</ele><time>2026-08-16T10:03:20Z</time></trkpt><trkpt lat="59.3480776437" lon="34.7748736572"><ele>141.45</ele><time>2026-08-16T10:03:32Z</time></trkpt><trkpt lat="59.3479934894" lon="34.7742967308"><ele>144.47</ele><time>2026-08-16T10:05:36Z</time></trkpt><trkpt lat="59.3479206506" lon="34.7741927113"><ele>145.10</ele><time>2026-08-16T10:05:39Z</time></trkpt><trkpt lat="59.3478495721" lon="34.7740858421"><ele>145.71</ele><time>2026-08-16T10:05:42Z</time></trkpt><trkpt lat="59.3475187384" lon="34.7738115862"><ele>148.57</ele><time>2026-08-16T10:05:57Z</time></trkpt><trkpt lat="59.3471545447" lon="34.7735296190"><ele>151.12</ele><time>2026-08-16T10:06:11Z</time></trkpt><trkpt lat="59.3471084442" lon="34.7734632343"><ele>151.89</ele><time>2026-08-16T10:06:13Z</time></trkpt><trkpt lat="59.3467570748" lon="34.7727925982"><ele>153.91</ele><time>2026-08-16T10:06:27Z</time></trkpt><trkpt lat="59.3465416599" lon="34.7717719339"><ele>156.28</ele><time>2026-08-16T10:06:42Z</time></trkpt><trkpt lat="59.3464974873" lon="34.7710221726"><ele>154.72</ele><time>2026-08-16T10:06:56Z</time></trkpt><trkpt lat="59.3466641195" lon="34.7706285585"><ele>154.46</ele><time>2026-08-16T10:07:09Z</time></trkpt><trkpt lat="59.3467754312" lon="34.7704242077"><ele>153.95</ele><time>2026-08-16T10:07:15Z</time></trkpt><trkpt lat="59.3468264770" lon="34.7703078669"><ele>153.80</ele><time>2026-08-16T10:07:18Z</time></trkpt><trkpt lat="59.3468434084" lon="34.7702678852"><ele>153.76</ele><time>2026-08-16T10:07:19Z</time></trkpt><trkpt lat="59.3470583204" lon="34.7697210498"><ele>153.54</ele><time>2026-08-16T10:07:33Z</time></trkpt><trkpt lat="59.3470505252" lon="34.7693325486"><ele>152.80</ele><time>2026-08-16T10:07:46Z</time></trkpt><trkpt lat="59.3470473401" lon="34.7692960873"><ele>152.84</ele><time>2026-08-16T10:07:48Z</time></trkpt><trkpt lat="59.3470268045" lon="34.7686464898"><ele>152.71</ele><time>2026-08-16T10:08:02Z</time></trkpt><trkpt lat="59.3470377848" lon="34.7685678676"><ele>152.61</ele><time>2026-08-16T10:08:06Z</time></trkpt><trkpt lat="59.3470781855" lon="34.7680713236"><ele>153.82</ele><time>2026-08-16T10:08:22Z</time></trkpt><trkpt lat="59.3470769282" lon="34.7680140752"><ele>153.93</ele><time>2026-08-16T10:08:23Z</time></trkpt><trkpt lat="59.3470938597" lon="34.7678797133"><ele>153.83</ele><time>2026-08-16T10:08:25Z</time></trkpt><trkpt lat="59.3469870742" lon="34.7664766666"><ele>153.08</ele><time>2026-08-16T10:08:37Z</time></trkpt><trkpt lat="59.3469586596" lon="34.7651850991"><ele>151.18</ele><time>2026-08-16T10:08:52Z</time></trkpt><trkpt lat="59.3468073662" lon="34.7637325153"><ele>152.32</ele><time>2026-08-16T10:09:07Z</time></trkpt><trkpt lat="59.3466491997" lon="34.7627758887"><ele>151.81</ele><time>2026-08-16T10:09:18Z</time></trkpt><trkpt lat="59.3466147501" lon="34.7619734891"><ele>152.53</ele><time>2026-08-16T10:09:33Z</time></trkpt><trkpt lat="59.3465086352" lon="34.7611261625"><ele>152.18</ele><time>2026-08-16T10:09:47Z</time></trkpt><trkpt lat="59.3467472680" lon="34.7603018023"><ele>153.43</ele><time>2026-08-16T10:10:01Z</time></trkpt><trkpt lat="59.3469543848" lon="34.7598026600"><ele>152.69</ele><time>2026-08-16T10:10:11Z</time></trkpt><trkpt lat="59.3473013118" lon="34.7590865940"><ele>152.33</ele><time>2026-08-16T10:10:28Z</time></trkpt><trkpt lat="59.3473799340" lon="34.7581745591"><ele>151.69</ele><time>2026-08-16T10:10:44Z</time></trkpt><trkpt lat="59.3473926745" lon="34.7580359224"><ele>151.47</ele><time>2026-08-16T10:10:50Z</time></trkpt><trkpt lat="59.3475298025" lon="34.7572877537"><ele>152.04</ele><time>2026-08-16T10:11:09Z</time></trkpt><trkpt lat="59.3476034794" lon="34.7567560058"><ele>152.27</ele><time>2026-08-16T10:11:23Z</time></trkpt><trkpt lat="59.3476586323" lon="34.7564334702"><ele>152.99</ele><time>2026-08-16T10:11:30Z</time></trkpt><trkpt lat="59.3476608954" lon="34.7563716955"><ele>153.03</ele><time>2026-08-16T10:11:31Z</time></trkpt><trkpt lat="59.3476608116" lon="34.7563092504"><ele>153.38</ele><time>2026-08-16T10:11:32Z</time></trkpt><trkpt lat="59.3476651702" lon="34.7562449612"><ele>153.20</ele><time>2026-08-16T10:11:33Z</time></trkpt><trkpt lat="59.3476673495" lon="34.7561909817"><ele>153.28</ele><time>2026-08-16T10:11:34Z</time></trkpt><trkpt lat="59.3476690259" lon="34.7561328951"><ele>152.76</ele><time>2026-08-16T10:11:35Z</time></trkpt><trkpt lat="59.3477062415" lon="34.7556379437"><ele>152.66</ele><time>2026-08-16T10:11:47Z</time></trkpt><trkpt lat="59.3477342371" lon="34.7555199265"><ele>152.84</ele><time>2026-08-16T10:11:53Z</time></trkpt><trkpt lat="59.3477341533" lon="34.7553535458"><ele>152.48</ele><time>2026-08-16T10:12:01Z</time></trkpt><trkpt lat="59.3478192296" lon="34.7550425772"><ele>152.37</ele><time>2026-08-16T10:12:15Z</time></trkpt><trkpt lat="59.3478452973" lon="34.7548448481"><ele>152.43</ele><time>2026-08-16T10:12:21Z</time></trkpt><trkpt lat="59.3479433656" lon="34.7545192949"><ele>152.38</ele><time>2026-08-16T10:12:33Z</time></trkpt><trkpt lat="59.3480408471" lon="34.7541896347"><ele>153.51</ele><time>2026-08-16T10:12:40Z</time></trkpt><trkpt lat="59.3480504863" lon="34.7541170474"><ele>153.68</ele><time>2026-08-16T10:12:41Z</time></trkpt><trkpt lat="59.3482230697" lon="34.7532817069"><ele>154.95</ele><time>2026-08-16T10:12:55Z</time></trkpt><trkpt lat="59.3482620455" lon="34.7526292596"><ele>155.46</ele><time>2026-08-16T10:13:08Z</time></trkpt><trkpt lat="59.3482862692" lon="34.7522365674"><ele>155.22</ele><time>2026-08-16T10:13:20Z</time></trkpt><trkpt lat="59.3482726067" lon="34.7499085777"><ele>154.26</ele><time>2026-08-16T10:14:40Z</time></trkpt><trkpt lat="59.3482405879" lon="34.7497513331"><ele>153.81</ele><time>2026-08-16T10:14:46Z</time></trkpt><trkpt lat="59.3480977602" lon="34.7482606955"><ele>153.20</ele><time>2026-08-16T10:15:25Z</time></trkpt><trkpt lat="59.3481003586" lon="34.7482233960"><ele>153.11</ele><time>2026-08-16T10:15:26Z</time></trkpt><trkpt lat="59.3481004424" lon="34.7481943108"><ele>153.04</ele><time>2026-08-16T10:15:27Z</time></trkpt><trkpt lat="59.3480940722" lon="34.7481620405"><ele>153.03</ele><time>2026-08-16T10:15:28Z</time></trkpt><trkpt lat="59.3480259273" lon="34.7475993633"><ele>152.38</ele><time>2026-08-16T10:15:40Z</time></trkpt><trkpt lat="59.3480206467" lon="34.7474712878"><ele>152.28</ele><time>2026-08-16T10:15:43Z</time></trkpt><trkpt lat="59.3480197247" lon="34.7474331502"><ele>152.25</ele><time>2026-08-16T10:15:44Z</time></trkpt><trkpt lat="59.3480175454" lon="34.7473963536"><ele>152.20</ele><time>2026-08-16T10:15:45Z</time></trkpt><trkpt lat="59.3479402643" lon="34.7468054295"><ele>151.71</ele><time>2026-08-16T10:15:58Z</time></trkpt><trkpt lat="59.3479504064" lon="34.7467360273"><ele>151.54</ele><time>2026-08-16T10:15:59Z</time></trkpt><trkpt lat="59.3479565252" lon="34.7466724087"><ele>151.48</ele><time>2026-08-16T10:16:00Z</time></trkpt><trkpt lat="59.3479623087" lon="34.7466215305"><ele>151.44</ele><time>2026-08-16T10:16:01Z</time></trkpt><trkpt lat="59.3479758035" lon="34.7465766873"><ele>151.39</ele><time>2026-08-16T10:16:02Z</time></trkpt><trkpt lat="59.3479908071" lon="34.7465420701"><ele>151.37</ele><time>2026-08-16T10:16:03Z</time></trkpt><trkpt lat="59.3479976803" lon="34.7465108894"><ele>151.41</ele><time>2026-08-16T10:16:04Z</time></trkpt><trkpt lat="59.3480523303" lon="34.7459730227"><ele>152.12</ele><time>2026-08-16T10:16:15Z</time></trkpt><trkpt lat="59.3480655737" lon="34.7459300235"><ele>152.08</ele><time>2026-08-16T10:16:16Z</time></trkpt><trkpt lat="59.3480776437" lon="34.7458817437"><ele>152.05</ele><time>2026-08-16T10:16:17Z</time></trkpt><trkpt lat="59.3480884563" lon="34.7458305303"><ele>152.35</ele><time>2026-08-16T10:16:18Z</time></trkpt><trkpt lat="59.3480900489" lon="34.7457686719"><ele>152.49</ele><time>2026-08-16T10:16:19Z</time></trkpt><trkpt lat="59.3480932340" lon="34.7457136028"><ele>152.24</ele><time>2026-08-16T10:16:20Z</time></trkpt><trkpt lat="59.3480957486" lon="34.7456646524"><ele>152.30</ele><time>2026-08-16T10:16:21Z</time></trkpt><trkpt lat="59.3481411785" lon="34.7453930788"><ele>151.90</ele><time>2026-08-16T10:16:33Z</time></trkpt><trkpt lat="59.3482546695" lon="34.7452360857"><ele>151.79</ele><time>2026-08-16T10:18:09Z</time></trkpt><trkpt lat="59.3482576869" lon="34.7452150472"><ele>151.86</ele><time>2026-08-16T10:18:10Z</time></trkpt><trkpt lat="59.3483569287" lon="34.7446755040"><ele>151.40</ele><time>2026-08-16T10:18:30Z</time></trkpt><trkpt lat="59.3484328687" lon="34.7443554830"><ele>151.45</ele><time>2026-08-16T10:18:40Z</time></trkpt><trkpt lat="59.3486506306" lon="34.7433021292"><ele>150.77</ele><time>2026-08-16T10:19:11Z</time></trkpt><trkpt lat="59.3487190269" lon="34.7427605744"><ele>150.31</ele><time>2026-08-16T10:19:22Z</time></trkpt><trkpt lat="59.3488056120" lon="34.7420999128"><ele>150.57</ele><time>2026-08-16T10:19:35Z</time></trkpt><trkpt lat="59.3489442486" lon="34.7409490775"><ele>153.71</ele><time>2026-08-16T10:19:48Z</time></trkpt><trkpt lat="59.3490838911" lon="34.7397257388"><ele>152.58</ele><time>2026-08-16T10:20:05Z</time></trkpt><trkpt lat="59.3490758445" lon="34.7390449606"><ele>151.24</ele><time>2026-08-16T10:20:17Z</time></trkpt><trkpt lat="59.3490510341" lon="34.7385194991"><ele>150.75</ele><time>2026-08-16T10:20:26Z</time></trkpt><trkpt lat="59.3490231223" lon="34.7382786870"><ele>150.50</ele><time>2026-08-16T10:20:29Z</time></trkpt><trkpt lat="59.3490087055" lon="34.7382040881"><ele>150.44</ele><time>2026-08-16T10:20:30Z</time></trkpt><trkpt lat="59.3488252256" lon="34.7369010374"><ele>148.36</ele><time>2026-08-16T10:20:47Z</time></trkpt><trkpt lat="59.3486829009" lon="34.7361675370"><ele>148.93</ele><time>2026-08-16T10:21:00Z</time></trkpt><trkpt lat="59.3484983314" lon="34.7350470442"><ele>150.41</ele><time>2026-08-16T10:21:11Z</time></trkpt><trkpt lat="59.3483644724" lon="34.7342718020"><ele>151.20</ele><time>2026-08-16T10:21:23Z</time></trkpt><trkpt lat="59.3482841738" lon="34.7335358709"><ele>151.24</ele><time>2026-08-16T10:21:36Z</time></trkpt><trkpt lat="59.3483173661" lon="34.7335214540"><ele>151.49</ele><time>2026-08-16T10:21:37Z</time></trkpt><trkpt lat="59.3483596947" lon="34.7335130721"><ele>151.75</ele><time>2026-08-16T10:21:38Z</time></trkpt><trkpt lat="59.3490082864" lon="34.7333305981"><ele>153.59</ele><time>2026-08-16T10:21:46Z</time></trkpt><trkpt lat="59.3505859282" lon="34.7328870278"><ele>155.25</ele><time>2026-08-16T10:22:01Z</time></trkpt><trkpt lat="59.3520505819" lon="34.7325653303"><ele>155.11</ele><time>2026-08-16T10:22:13Z</time></trkpt><trkpt lat="59.3535451591" lon="34.7327061463"><ele>155.99</ele><time>2026-08-16T10:22:26Z</time></trkpt><trkpt lat="59.3553864118" lon="34.7327518277"><ele>157.33</ele><time>2026-08-16T10:22:42Z</time></trkpt><trkpt lat="59.3574507907" lon="34.7327099182"><ele>158.68</ele><time>2026-08-16T10:22:59Z</time></trkpt><trkpt lat="59.3592489604" lon="34.7324823495"><ele>160.64</ele><time>2026-08-16T10:23:12Z</time></trkpt><trkpt lat="59.3615286704" lon="34.7320319898"><ele>161.37</ele><time>2026-08-16T10:23:27Z</time></trkpt><trkpt lat="59.3637789600" lon="34.7315553948"><ele>162.83</ele><time>2026-08-16T10:23:42Z</time></trkpt><trkpt lat="59.3650597148" lon="34.7310776263"><ele>159.73</ele><time>2026-08-16T10:23:50Z</time></trkpt><trkpt lat="59.3655261677" lon="34.7309197951"><ele>158.19</ele><time>2026-08-16T10:23:53Z</time></trkpt><trkpt lat="59.3671712838" lon="34.7303133644"><ele>159.84</ele><time>2026-08-16T10:24:05Z</time></trkpt><trkpt lat="59.3681191932" lon="34.7300205845"><ele>163.06</ele><time>2026-08-16T10:24:12Z</time></trkpt><trkpt lat="59.3704825547" lon="34.7291910276"><ele>163.01</ele><time>2026-08-16T10:24:28Z</time></trkpt><trkpt lat="59.3725323491" lon="34.7285056394"><ele>163.02</ele><time>2026-08-16T10:24:42Z</time></trkpt><trkpt lat="59.3739146926" lon="34.7284759674"><ele>162.77</ele><time>2026-08-16T10:24:53Z</time></trkpt><trkpt lat="59.3754551187" lon="34.7289918736"><ele>162.16</ele><time>2026-08-16T10:25:04Z</time></trkpt><trkpt lat="59.3776236847" lon="34.7296866495"><ele>165.24</ele><time>2026-08-16T10:25:17Z</time></trkpt><trkpt lat="59.3786240648" lon="34.7295913473"><ele>164.63</ele><time>2026-08-16T10:25:23Z</time></trkpt><trkpt lat="59.3803581130" lon="34.7286410071"><ele>163.48</ele><time>2026-08-16T10:25:33Z</time></trkpt><trkpt lat="59.3817692902" lon="34.7279004660"><ele>162.05</ele><time>2026-08-16T10:25:41Z</time></trkpt><trkpt lat="59.3826249987" lon="34.7274952848"><ele>165.23</ele><time>2026-08-16T10:25:46Z</time></trkpt><trkpt lat="59.3827933073" lon="34.7274178360"><ele>165.26</ele><time>2026-08-16T10:25:47Z</time></trkpt><trkpt lat="59.3849077262" lon="34.7263447009"><ele>167.32</ele><time>2026-08-16T10:26:00Z</time></trkpt><trkpt lat="59.3858516123" lon="34.7258330695"><ele>170.03</ele><time>2026-08-16T10:26:06Z</time></trkpt><trkpt lat="59.3874997459" lon="34.7250429913"><ele>167.45</ele><time>2026-08-16T10:26:16Z</time></trkpt><trkpt lat="59.3881575577" lon="34.7248431668"><ele>164.32</ele><time>2026-08-16T10:26:20Z</time></trkpt><trkpt lat="59.3894642964" lon="34.7247637901"><ele>164.03</ele><time>2026-08-16T10:26:30Z</time></trkpt><trkpt lat="59.3907436263" lon="34.7252795286"><ele>165.91</ele><time>2026-08-16T10:26:41Z</time></trkpt><trkpt lat="59.3918815535" lon="34.7259422857"><ele>163.73</ele><time>2026-08-16T10:26:50Z</time></trkpt><trkpt lat="59.3930268567" lon="34.7270232998"><ele>164.21</ele><time>2026-08-16T10:27:01Z</time></trkpt><trkpt lat="59.3938125763" lon="34.7279260308"><ele>165.62</ele><time>2026-08-16T10:27:08Z</time></trkpt><trkpt lat="59.3952481449" lon="34.7296730708"><ele>165.30</ele><time>2026-08-16T10:27:20Z</time></trkpt><trkpt lat="59.3968267087" lon="34.7315710690"><ele>164.63</ele><time>2026-08-16T10:27:33Z</time></trkpt><trkpt lat="59.3974452931" lon="34.7323230095"><ele>161.90</ele><time>2026-08-16T10:27:39Z</time></trkpt><trkpt lat="59.3984777760" lon="34.7335639503"><ele>159.99</ele><time>2026-08-16T10:27:51Z</time></trkpt><trkpt lat="59.3987247907" lon="34.7338699736"><ele>156.98</ele><time>2026-08-16T10:27:55Z</time></trkpt><trkpt lat="59.3988536205" lon="34.7339376155"><ele>157.16</ele><time>2026-08-16T10:28:00Z</time></trkpt><trkpt lat="59.3988872319" lon="34.7338688001"><ele>158.03</ele><time>2026-08-16T10:28:01Z</time></trkpt><trkpt lat="59.3989239447" lon="34.7337665409"><ele>158.40</ele><time>2026-08-16T10:28:02Z</time></trkpt><trkpt lat="59.3989583943" lon="34.7336454224"><ele>158.89</ele><time>2026-08-16T10:28:03Z</time></trkpt><trkpt lat="59.3989939336" lon="34.7335075401"><ele>159.52</ele><time>2026-08-16T10:28:04Z</time></trkpt><trkpt lat="59.3992255256" lon="34.7328284383"><ele>161.87</ele><time>2026-08-16T10:28:08Z</time></trkpt><trkpt lat="59.3994353246" lon="34.7322349995"><ele>164.96</ele><time>2026-08-16T10:28:11Z</time></trkpt><trkpt lat="59.3995140307" lon="34.7320236918"><ele>164.71</ele><time>2026-08-16T10:28:12Z</time></trkpt><trkpt lat="59.4002397358" lon="34.7300775815"><ele>167.70</ele><time>2026-08-16T10:28:20Z</time></trkpt><trkpt lat="59.4015338179" lon="34.7267233115"><ele>169.77</ele><time>2026-08-16T10:28:32Z</time></trkpt></trkseg></trk></gpx>